sensor_id;sensor_type;location;lat;lon;timestamp;P1;durP1;ratioP1;P2;durP2;ratioP2
44446;SDS011;30152;52.066;5.358;2023-03-20T00:01:35;35.55;;;11.63;;
44446;SDS011;30152;52.066;5.358;2023-03-20T00:04:01;34.72;;;11.82;;
44446;SDS011;30152;52.066;5.358;2023-03-20T00:06:27;31.25;;;12.80;;
44446;SDS011;30152;52.066;5.358;2023-03-20T00:08:53;29.48;;;12.15;;
44446;SDS011;30152;52.066;5.358;2023-03-20T00:11:24;32.15;;;13.52;;
44446;SDS011;30152;52.066;5.358;2023-03-20T00:13:53;34.90;;;14.77;;
44446;SDS011;30152;52.066;5.358;2023-03-20T00:16:20;32.38;;;13.50;;
44446;SDS011;30152;52.066;5.358;2023-03-20T00:18:47;27.25;;;13.00;;
44446;SDS011;30152;52.066;5.358;2023-03-20T00:21:15;31.38;;;14.20;;
44446;SDS011;30152;52.066;5.358;2023-03-20T00:23:42;35.67;;;14.45;;
44446;SDS011;30152;52.066;5.358;2023-03-20T00:26:11;35.67;;;15.55;;
44446;SDS011;30152;52.066;5.358;2023-03-20T00:28:40;35.83;;;15.20;;
44446;SDS011;30152;52.066;5.358;2023-03-20T00:31:14;37.13;;;16.45;;
44446;SDS011;30152;52.066;5.358;2023-03-20T00:33:45;30.58;;;13.73;;
44446;SDS011;30152;52.066;5.358;2023-03-20T00:36:11;34.03;;;16.23;;
44446;SDS011;30152;52.066;5.358;2023-03-20T00:38:37;45.75;;;15.30;;
44446;SDS011;30152;52.066;5.358;2023-03-20T00:41:10;37.28;;;14.90;;
44446;SDS011;30152;52.066;5.358;2023-03-20T00:43:40;36.88;;;14.02;;
44446;SDS011;30152;52.066;5.358;2023-03-20T00:46:10;30.27;;;13.85;;
44446;SDS011;30152;52.066;5.358;2023-03-20T00:48:38;30.73;;;13.30;;
44446;SDS011;30152;52.066;5.358;2023-03-20T00:51:05;35.45;;;14.20;;
44446;SDS011;30152;52.066;5.358;2023-03-20T00:53:31;26.83;;;12.25;;
44446;SDS011;30152;52.066;5.358;2023-03-20T00:55:57;26.45;;;12.73;;
44446;SDS011;30152;52.066;5.358;2023-03-20T00:58:24;28.23;;;12.38;;
44446;SDS011;30152;52.066;5.358;2023-03-20T01:00:50;30.38;;;12.02;;
44446;SDS011;30152;52.066;5.358;2023-03-20T01:03:18;27.65;;;10.35;;
44446;SDS011;30152;52.066;5.358;2023-03-20T01:05:45;23.45;;;9.75;;
44446;SDS011;30152;52.066;5.358;2023-03-20T01:08:12;27.25;;;10.73;;
44446;SDS011;30152;52.066;5.358;2023-03-20T01:10:39;32.38;;;9.25;;
44446;SDS011;30152;52.066;5.358;2023-03-20T01:13:08;21.77;;;9.15;;
44446;SDS011;30152;52.066;5.358;2023-03-20T01:15:56;21.55;;;8.13;;
44446;SDS011;30152;52.066;5.358;2023-03-20T01:18:24;24.63;;;7.82;;
44446;SDS011;30152;52.066;5.358;2023-03-20T01:20:50;16.98;;;8.18;;
44446;SDS011;30152;52.066;5.358;2023-03-20T01:23:20;15.60;;;6.63;;
44446;SDS011;30152;52.066;5.358;2023-03-20T01:25:47;13.25;;;6.15;;
44446;SDS011;30152;52.066;5.358;2023-03-20T01:28:14;16.70;;;6.53;;
44446;SDS011;30152;52.066;5.358;2023-03-20T01:30:42;20.98;;;7.35;;
44446;SDS011;30152;52.066;5.358;2023-03-20T01:33:12;14.30;;;6.28;;
44446;SDS011;30152;52.066;5.358;2023-03-20T01:35:42;18.17;;;6.13;;
44446;SDS011;30152;52.066;5.358;2023-03-20T01:38:13;15.68;;;6.45;;
44446;SDS011;30152;52.066;5.358;2023-03-20T01:43:16;21.75;;;6.10;;
44446;SDS011;30152;52.066;5.358;2023-03-20T01:45:46;19.98;;;6.05;;
44446;SDS011;30152;52.066;5.358;2023-03-20T01:48:18;16.38;;;4.93;;
44446;SDS011;30152;52.066;5.358;2023-03-20T01:50:45;15.02;;;5.45;;
44446;SDS011;30152;52.066;5.358;2023-03-20T01:53:13;19.10;;;7.30;;
44446;SDS011;30152;52.066;5.358;2023-03-20T01:55:40;18.40;;;5.95;;
44446;SDS011;30152;52.066;5.358;2023-03-20T01:58:08;14.82;;;5.80;;
44446;SDS011;30152;52.066;5.358;2023-03-20T02:00:54;18.30;;;6.72;;
44446;SDS011;30152;52.066;5.358;2023-03-20T02:03:21;19.63;;;6.75;;
44446;SDS011;30152;52.066;5.358;2023-03-20T02:05:47;17.88;;;6.68;;
44446;SDS011;30152;52.066;5.358;2023-03-20T02:08:27;17.98;;;6.78;;
44446;SDS011;30152;52.066;5.358;2023-03-20T02:10:54;16.83;;;6.90;;
44446;SDS011;30152;52.066;5.358;2023-03-20T02:13:23;20.02;;;7.13;;
44446;SDS011;30152;52.066;5.358;2023-03-20T02:15:54;15.82;;;6.57;;
44446;SDS011;30152;52.066;5.358;2023-03-20T02:18:40;24.92;;;7.30;;
44446;SDS011;30152;52.066;5.358;2023-03-20T02:24:26;20.70;;;8.00;;
44446;SDS011;30152;52.066;5.358;2023-03-20T02:29:47;21.45;;;6.95;;
44446;SDS011;30152;52.066;5.358;2023-03-20T02:37:47;18.98;;;7.72;;
44446;SDS011;30152;52.066;5.358;2023-03-20T02:48:53;19.83;;;7.28;;
44446;SDS011;30152;52.066;5.358;2023-03-20T02:51:21;18.50;;;7.63;;
44446;SDS011;30152;52.066;5.358;2023-03-20T03:04:28;29.33;;;11.50;;
44446;SDS011;30152;52.066;5.358;2023-03-20T03:06:59;39.20;;;12.15;;
44446;SDS011;30152;52.066;5.358;2023-03-20T03:09:48;31.85;;;11.57;;
44446;SDS011;30152;52.066;5.358;2023-03-20T03:12:20;31.40;;;12.02;;
44446;SDS011;30152;52.066;5.358;2023-03-20T03:14:48;27.10;;;12.35;;
44446;SDS011;30152;52.066;5.358;2023-03-20T03:17:15;33.80;;;13.82;;
44446;SDS011;30152;52.066;5.358;2023-03-20T03:19:48;34.97;;;13.13;;
44446;SDS011;30152;52.066;5.358;2023-03-20T03:22:15;38.20;;;13.93;;
44446;SDS011;30152;52.066;5.358;2023-03-20T03:24:42;36.80;;;14.52;;
44446;SDS011;30152;52.066;5.358;2023-03-20T03:27:13;37.20;;;14.52;;
44446;SDS011;30152;52.066;5.358;2023-03-20T03:29:41;39.42;;;15.52;;
44446;SDS011;30152;52.066;5.358;2023-03-20T03:32:18;37.80;;;15.13;;
44446;SDS011;30152;52.066;5.358;2023-03-20T03:34:57;42.92;;;14.57;;
44446;SDS011;30152;52.066;5.358;2023-03-20T03:40:10;35.92;;;14.90;;
44446;SDS011;30152;52.066;5.358;2023-03-20T03:43:20;40.72;;;15.68;;
44446;SDS011;30152;52.066;5.358;2023-03-20T03:45:54;33.80;;;14.35;;
44446;SDS011;30152;52.066;5.358;2023-03-20T03:48:25;40.58;;;15.70;;
44446;SDS011;30152;52.066;5.358;2023-03-20T03:50:54;40.28;;;15.60;;
44446;SDS011;30152;52.066;5.358;2023-03-20T03:53:34;35.97;;;14.75;;
44446;SDS011;30152;52.066;5.358;2023-03-20T03:56:05;42.10;;;14.85;;
44446;SDS011;30152;52.066;5.358;2023-03-20T03:58:36;44.92;;;15.48;;
44446;SDS011;30152;52.066;5.358;2023-03-20T04:01:05;41.72;;;15.35;;
44446;SDS011;30152;52.066;5.358;2023-03-20T04:03:35;41.17;;;13.88;;
44446;SDS011;30152;52.066;5.358;2023-03-20T04:06:04;37.60;;;14.65;;
44446;SDS011;30152;52.066;5.358;2023-03-20T04:08:30;40.58;;;15.65;;
44446;SDS011;30152;52.066;5.358;2023-03-20T04:10:56;45.08;;;16.00;;
44446;SDS011;30152;52.066;5.358;2023-03-20T04:13:23;39.10;;;14.90;;
44446;SDS011;30152;52.066;5.358;2023-03-20T04:15:49;38.75;;;16.20;;
44446;SDS011;30152;52.066;5.358;2023-03-20T04:18:15;42.55;;;15.75;;
44446;SDS011;30152;52.066;5.358;2023-03-20T04:20:43;51.17;;;18.05;;
44446;SDS011;30152;52.066;5.358;2023-03-20T04:23:09;42.28;;;15.63;;
44446;SDS011;30152;52.066;5.358;2023-03-20T04:25:35;41.35;;;16.48;;
44446;SDS011;30152;52.066;5.358;2023-03-20T04:28:01;33.25;;;16.15;;
44446;SDS011;30152;52.066;5.358;2023-03-20T04:30:27;43.83;;;16.70;;
44446;SDS011;30152;52.066;5.358;2023-03-20T04:32:53;38.15;;;16.80;;
44446;SDS011;30152;52.066;5.358;2023-03-20T04:35:19;38.15;;;16.67;;
44446;SDS011;30152;52.066;5.358;2023-03-20T04:37:45;37.55;;;16.77;;
44446;SDS011;30152;52.066;5.358;2023-03-20T04:40:11;32.05;;;15.93;;
44446;SDS011;30152;52.066;5.358;2023-03-20T04:42:37;38.30;;;17.45;;
44446;SDS011;30152;52.066;5.358;2023-03-20T04:45:03;39.65;;;17.33;;
44446;SDS011;30152;52.066;5.358;2023-03-20T04:47:30;34.75;;;16.13;;
44446;SDS011;30152;52.066;5.358;2023-03-20T04:49:56;38.28;;;17.17;;
44446;SDS011;30152;52.066;5.358;2023-03-20T04:52:22;42.65;;;17.52;;
44446;SDS011;30152;52.066;5.358;2023-03-20T04:54:49;41.03;;;17.35;;
44446;SDS011;30152;52.066;5.358;2023-03-20T04:57:15;35.97;;;17.83;;
44446;SDS011;30152;52.066;5.358;2023-03-20T04:59:41;37.45;;;17.75;;
44446;SDS011;30152;52.066;5.358;2023-03-20T05:02:07;38.17;;;17.88;;
44446;SDS011;30152;52.066;5.358;2023-03-20T05:04:33;46.88;;;17.80;;
44446;SDS011;30152;52.066;5.358;2023-03-20T05:06:59;39.58;;;19.02;;
44446;SDS011;30152;52.066;5.358;2023-03-20T05:09:25;39.25;;;17.83;;
44446;SDS011;30152;52.066;5.358;2023-03-20T05:11:51;43.92;;;18.33;;
44446;SDS011;30152;52.066;5.358;2023-03-20T05:14:17;34.47;;;16.25;;
44446;SDS011;30152;52.066;5.358;2023-03-20T05:16:43;35.95;;;16.92;;
44446;SDS011;30152;52.066;5.358;2023-03-20T05:19:09;41.30;;;17.35;;
44446;SDS011;30152;52.066;5.358;2023-03-20T05:21:35;37.08;;;17.08;;
44446;SDS011;30152;52.066;5.358;2023-03-20T05:24:01;33.25;;;16.38;;
44446;SDS011;30152;52.066;5.358;2023-03-20T05:26:27;39.05;;;16.85;;
44446;SDS011;30152;52.066;5.358;2023-03-20T05:28:53;31.85;;;16.67;;
44446;SDS011;30152;52.066;5.358;2023-03-20T05:31:19;34.17;;;15.70;;
44446;SDS011;30152;52.066;5.358;2023-03-20T05:33:45;38.33;;;17.30;;
44446;SDS011;30152;52.066;5.358;2023-03-20T05:36:10;37.47;;;16.38;;
44446;SDS011;30152;52.066;5.358;2023-03-20T05:38:36;38.72;;;16.38;;
44446;SDS011;30152;52.066;5.358;2023-03-20T05:41:02;34.03;;;17.02;;
44446;SDS011;30152;52.066;5.358;2023-03-20T05:43:28;34.10;;;15.98;;
44446;SDS011;30152;52.066;5.358;2023-03-20T05:45:55;26.90;;;15.70;;
44446;SDS011;30152;52.066;5.358;2023-03-20T05:48:21;32.45;;;16.15;;
44446;SDS011;30152;52.066;5.358;2023-03-20T05:50:47;36.78;;;15.27;;
44446;SDS011;30152;52.066;5.358;2023-03-20T05:53:13;31.48;;;14.82;;
44446;SDS011;30152;52.066;5.358;2023-03-20T05:55:40;28.30;;;14.27;;
44446;SDS011;30152;52.066;5.358;2023-03-20T05:58:08;28.50;;;15.15;;
44446;SDS011;30152;52.066;5.358;2023-03-20T06:00:34;33.03;;;16.02;;
44446;SDS011;30152;52.066;5.358;2023-03-20T06:03:00;33.00;;;14.68;;
44446;SDS011;30152;52.066;5.358;2023-03-20T06:05:26;34.10;;;15.68;;
44446;SDS011;30152;52.066;5.358;2023-03-20T06:07:52;37.55;;;15.90;;
44446;SDS011;30152;52.066;5.358;2023-03-20T06:10:18;28.83;;;14.88;;
44446;SDS011;30152;52.066;5.358;2023-03-20T06:12:44;35.50;;;14.10;;
44446;SDS011;30152;52.066;5.358;2023-03-20T06:15:10;37.40;;;16.05;;
44446;SDS011;30152;52.066;5.358;2023-03-20T06:17:37;30.77;;;14.77;;
44446;SDS011;30152;52.066;5.358;2023-03-20T06:20:03;39.88;;;16.02;;
44446;SDS011;30152;52.066;5.358;2023-03-20T06:22:29;27.58;;;14.88;;
44446;SDS011;30152;52.066;5.358;2023-03-20T06:24:56;40.08;;;16.83;;
44446;SDS011;30152;52.066;5.358;2023-03-20T06:27:22;37.88;;;16.10;;
44446;SDS011;30152;52.066;5.358;2023-03-20T06:29:48;31.23;;;15.57;;
44446;SDS011;30152;52.066;5.358;2023-03-20T06:32:14;30.33;;;15.20;;
44446;SDS011;30152;52.066;5.358;2023-03-20T06:34:41;31.58;;;15.00;;
44446;SDS011;30152;52.066;5.358;2023-03-20T06:37:07;28.58;;;14.38;;
44446;SDS011;30152;52.066;5.358;2023-03-20T06:39:33;32.78;;;15.07;;
44446;SDS011;30152;52.066;5.358;2023-03-20T06:42:00;39.40;;;17.02;;
44446;SDS011;30152;52.066;5.358;2023-03-20T06:44:26;36.13;;;15.40;;
44446;SDS011;30152;52.066;5.358;2023-03-20T06:46:52;43.95;;;15.80;;
44446;SDS011;30152;52.066;5.358;2023-03-20T06:49:18;32.28;;;14.50;;
44446;SDS011;30152;52.066;5.358;2023-03-20T06:51:44;33.10;;;15.50;;
44446;SDS011;30152;52.066;5.358;2023-03-20T06:54:11;32.85;;;16.10;;
44446;SDS011;30152;52.066;5.358;2023-03-20T06:56:37;33.03;;;15.85;;
44446;SDS011;30152;52.066;5.358;2023-03-20T06:59:03;36.13;;;16.20;;
44446;SDS011;30152;52.066;5.358;2023-03-20T07:01:29;33.33;;;14.75;;
44446;SDS011;30152;52.066;5.358;2023-03-20T07:03:55;35.85;;;17.38;;
44446;SDS011;30152;52.066;5.358;2023-03-20T07:06:21;30.83;;;14.20;;
44446;SDS011;30152;52.066;5.358;2023-03-20T07:08:47;28.20;;;14.25;;
44446;SDS011;30152;52.066;5.358;2023-03-20T07:11:13;32.85;;;15.07;;
44446;SDS011;30152;52.066;5.358;2023-03-20T07:13:39;29.83;;;14.85;;
44446;SDS011;30152;52.066;5.358;2023-03-20T07:16:05;35.25;;;14.30;;
44446;SDS011;30152;52.066;5.358;2023-03-20T07:18:32;36.15;;;14.88;;
44446;SDS011;30152;52.066;5.358;2023-03-20T07:21:02;30.98;;;14.80;;
44446;SDS011;30152;52.066;5.358;2023-03-20T07:23:29;34.88;;;14.93;;
44446;SDS011;30152;52.066;5.358;2023-03-20T07:25:55;28.10;;;13.65;;
44446;SDS011;30152;52.066;5.358;2023-03-20T07:28:22;31.10;;;14.30;;
44446;SDS011;30152;52.066;5.358;2023-03-20T07:30:48;32.70;;;14.13;;
44446;SDS011;30152;52.066;5.358;2023-03-20T07:33:14;32.60;;;14.48;;
44446;SDS011;30152;52.066;5.358;2023-03-20T07:35:41;33.22;;;14.88;;
44446;SDS011;30152;52.066;5.358;2023-03-20T07:38:07;33.90;;;13.45;;
44446;SDS011;30152;52.066;5.358;2023-03-20T07:40:33;33.25;;;13.93;;
44446;SDS011;30152;52.066;5.358;2023-03-20T07:42:59;28.30;;;13.18;;
44446;SDS011;30152;52.066;5.358;2023-03-20T07:45:25;30.83;;;13.35;;
44446;SDS011;30152;52.066;5.358;2023-03-20T07:47:51;31.52;;;12.98;;
44446;SDS011;30152;52.066;5.358;2023-03-20T07:50:17;24.00;;;10.45;;
44446;SDS011;30152;52.066;5.358;2023-03-20T07:52:46;28.25;;;11.45;;
44446;SDS011;30152;52.066;5.358;2023-03-20T07:55:13;28.85;;;12.65;;
44446;SDS011;30152;52.066;5.358;2023-03-20T07:57:39;34.20;;;13.38;;
44446;SDS011;30152;52.066;5.358;2023-03-20T08:00:05;32.40;;;12.10;;
44446;SDS011;30152;52.066;5.358;2023-03-20T08:02:32;30.20;;;12.48;;
44446;SDS011;30152;52.066;5.358;2023-03-20T08:04:58;28.90;;;11.20;;
44446;SDS011;30152;52.066;5.358;2023-03-20T08:07:24;28.98;;;10.15;;
44446;SDS011;30152;52.066;5.358;2023-03-20T08:09:50;25.13;;;10.63;;
44446;SDS011;30152;52.066;5.358;2023-03-20T08:12:16;23.25;;;10.80;;
44446;SDS011;30152;52.066;5.358;2023-03-20T08:14:42;27.45;;;10.80;;
44446;SDS011;30152;52.066;5.358;2023-03-20T08:17:08;25.25;;;10.02;;
44446;SDS011;30152;52.066;5.358;2023-03-20T08:19:34;22.45;;;9.60;;
44446;SDS011;30152;52.066;5.358;2023-03-20T08:22:02;23.08;;;11.70;;
44446;SDS011;30152;52.066;5.358;2023-03-20T08:24:28;22.73;;;9.32;;
44446;SDS011;30152;52.066;5.358;2023-03-20T08:26:54;28.30;;;9.85;;
44446;SDS011;30152;52.066;5.358;2023-03-20T08:29:20;26.33;;;9.27;;
44446;SDS011;30152;52.066;5.358;2023-03-20T08:31:46;23.08;;;10.35;;
44446;SDS011;30152;52.066;5.358;2023-03-20T08:34:12;26.17;;;9.63;;
44446;SDS011;30152;52.066;5.358;2023-03-20T08:36:38;32.72;;;11.65;;
44446;SDS011;30152;52.066;5.358;2023-03-20T08:39:05;18.35;;;9.73;;
44446;SDS011;30152;52.066;5.358;2023-03-20T08:41:31;23.88;;;8.48;;
44446;SDS011;30152;52.066;5.358;2023-03-20T08:43:57;19.75;;;8.18;;
44446;SDS011;30152;52.066;5.358;2023-03-20T08:46:23;16.70;;;8.35;;
44446;SDS011;30152;52.066;5.358;2023-03-20T08:48:49;22.80;;;8.85;;
44446;SDS011;30152;52.066;5.358;2023-03-20T08:51:15;25.38;;;8.82;;
44446;SDS011;30152;52.066;5.358;2023-03-20T08:53:41;19.08;;;7.97;;
44446;SDS011;30152;52.066;5.358;2023-03-20T08:56:07;18.60;;;7.97;;
44446;SDS011;30152;52.066;5.358;2023-03-20T08:58:33;21.63;;;8.65;;
44446;SDS011;30152;52.066;5.358;2023-03-20T09:01:03;24.45;;;9.38;;
44446;SDS011;30152;52.066;5.358;2023-03-20T09:03:30;26.10;;;9.15;;
44446;SDS011;30152;52.066;5.358;2023-03-20T09:05:56;25.65;;;8.95;;
44446;SDS011;30152;52.066;5.358;2023-03-20T09:08:22;25.88;;;9.00;;
44446;SDS011;30152;52.066;5.358;2023-03-20T09:10:48;19.75;;;8.40;;
44446;SDS011;30152;52.066;5.358;2023-03-20T09:13:14;19.35;;;9.52;;
44446;SDS011;30152;52.066;5.358;2023-03-20T09:15:41;25.88;;;9.63;;
44446;SDS011;30152;52.066;5.358;2023-03-20T09:18:07;25.60;;;9.73;;
44446;SDS011;30152;52.066;5.358;2023-03-20T09:20:33;24.38;;;9.32;;
44446;SDS011;30152;52.066;5.358;2023-03-20T09:22:59;21.02;;;8.55;;
44446;SDS011;30152;52.066;5.358;2023-03-20T09:25:25;18.95;;;8.25;;
44446;SDS011;30152;52.066;5.358;2023-03-20T09:27:51;19.42;;;7.82;;
44446;SDS011;30152;52.066;5.358;2023-03-20T09:30:19;24.25;;;9.35;;
44446;SDS011;30152;52.066;5.358;2023-03-20T09:32:45;24.92;;;8.32;;
44446;SDS011;30152;52.066;5.358;2023-03-20T09:35:11;24.52;;;8.05;;
44446;SDS011;30152;52.066;5.358;2023-03-20T09:37:37;21.42;;;7.55;;
44446;SDS011;30152;52.066;5.358;2023-03-20T09:40:03;26.35;;;7.88;;
44446;SDS011;30152;52.066;5.358;2023-03-20T09:45:36;20.88;;;7.82;;
44446;SDS011;30152;52.066;5.358;2023-03-20T09:53:49;19.60;;;7.07;;
44446;SDS011;30152;52.066;5.358;2023-03-20T09:56:22;20.23;;;7.13;;
44446;SDS011;30152;52.066;5.358;2023-03-20T09:59:00;20.30;;;7.22;;
44446;SDS011;30152;52.066;5.358;2023-03-20T10:01:49;18.40;;;6.95;;
44446;SDS011;30152;52.066;5.358;2023-03-20T10:04:18;22.80;;;7.68;;
44446;SDS011;30152;52.066;5.358;2023-03-20T10:06:44;19.52;;;7.57;;
44446;SDS011;30152;52.066;5.358;2023-03-20T10:09:19;15.43;;;6.50;;
44446;SDS011;30152;52.066;5.358;2023-03-20T10:11:55;15.25;;;6.07;;
44446;SDS011;30152;52.066;5.358;2023-03-20T10:20:00;16.65;;;5.80;;
44446;SDS011;30152;52.066;5.358;2023-03-20T10:22:44;15.00;;;6.40;;
44446;SDS011;30152;52.066;5.358;2023-03-20T10:25:21;20.20;;;6.03;;
44446;SDS011;30152;52.066;5.358;2023-03-20T10:27:59;17.85;;;6.28;;
44446;SDS011;30152;52.066;5.358;2023-03-20T10:35:43;17.83;;;6.28;;
44446;SDS011;30152;52.066;5.358;2023-03-20T10:38:39;20.88;;;7.13;;
44446;SDS011;30152;52.066;5.358;2023-03-20T10:41:15;23.15;;;6.90;;
44446;SDS011;30152;52.066;5.358;2023-03-20T10:43:43;18.90;;;6.47;;
44446;SDS011;30152;52.066;5.358;2023-03-20T10:46:10;23.30;;;7.28;;
44446;SDS011;30152;52.066;5.358;2023-03-20T10:48:59;21.00;;;6.28;;
44446;SDS011;30152;52.066;5.358;2023-03-20T10:54:22;16.08;;;6.60;;
44446;SDS011;30152;52.066;5.358;2023-03-20T10:56:52;18.58;;;7.47;;
44446;SDS011;30152;52.066;5.358;2023-03-20T11:01:46;19.00;;;8.05;;
44446;SDS011;30152;52.066;5.358;2023-03-20T11:04:12;21.42;;;8.25;;
44446;SDS011;30152;52.066;5.358;2023-03-20T11:09:42;17.77;;;7.55;;
44446;SDS011;30152;52.066;5.358;2023-03-20T11:12:14;26.95;;;8.93;;
44446;SDS011;30152;52.066;5.358;2023-03-20T11:14:42;25.08;;;9.30;;
44446;SDS011;30152;52.066;5.358;2023-03-20T11:17:08;23.15;;;8.80;;
44446;SDS011;30152;52.066;5.358;2023-03-20T11:19:35;23.05;;;9.50;;
44446;SDS011;30152;52.066;5.358;2023-03-20T11:22:07;30.77;;;9.98;;
44446;SDS011;30152;52.066;5.358;2023-03-20T11:25:06;26.92;;;10.32;;
44446;SDS011;30152;52.066;5.358;2023-03-20T11:27:46;24.95;;;10.82;;
44446;SDS011;30152;52.066;5.358;2023-03-20T11:30:12;25.88;;;11.70;;
44446;SDS011;30152;52.066;5.358;2023-03-20T11:32:46;21.02;;;10.15;;
44446;SDS011;30152;52.066;5.358;2023-03-20T11:38:05;27.00;;;10.77;;
44446;SDS011;30152;52.066;5.358;2023-03-20T11:40:44;22.33;;;11.40;;
44446;SDS011;30152;52.066;5.358;2023-03-20T11:43:24;31.75;;;11.50;;
44446;SDS011;30152;52.066;5.358;2023-03-20T11:45:55;22.88;;;11.77;;
44446;SDS011;30152;52.066;5.358;2023-03-20T11:48:23;30.15;;;11.90;;
44446;SDS011;30152;52.066;5.358;2023-03-20T11:50:58;30.58;;;11.60;;
44446;SDS011;30152;52.066;5.358;2023-03-20T11:53:38;28.63;;;12.25;;
44446;SDS011;30152;52.066;5.358;2023-03-20T11:56:05;22.60;;;12.13;;
44446;SDS011;30152;52.066;5.358;2023-03-20T11:58:32;28.38;;;14.13;;
44446;SDS011;30152;52.066;5.358;2023-03-20T12:01:00;28.13;;;12.70;;
44446;SDS011;30152;52.066;5.358;2023-03-20T12:03:36;31.33;;;11.80;;
44446;SDS011;30152;52.066;5.358;2023-03-20T12:06:41;30.25;;;12.82;;
44446;SDS011;30152;52.066;5.358;2023-03-20T12:09:22;35.70;;;16.17;;
44446;SDS011;30152;52.066;5.358;2023-03-20T12:12:07;35.28;;;13.07;;
44446;SDS011;30152;52.066;5.358;2023-03-20T12:20:29;31.85;;;13.93;;
44446;SDS011;30152;52.066;5.358;2023-03-20T12:23:12;28.25;;;12.55;;
44446;SDS011;30152;52.066;5.358;2023-03-20T12:32:02;35.92;;;14.93;;
44446;SDS011;30152;52.066;5.358;2023-03-20T12:37:00;37.70;;;15.40;;
44446;SDS011;30152;52.066;5.358;2023-03-20T12:39:33;28.40;;;14.18;;
44446;SDS011;30152;52.066;5.358;2023-03-20T13:01:03;39.22;;;17.27;;
44446;SDS011;30152;52.066;5.358;2023-03-20T13:03:45;38.38;;;17.38;;
44446;SDS011;30152;52.066;5.358;2023-03-20T13:14:45;34.05;;;16.95;;
44446;SDS011;30152;52.066;5.358;2023-03-20T13:17:36;43.30;;;18.52;;
44446;SDS011;30152;52.066;5.358;2023-03-20T13:20:30;39.38;;;17.52;;
44446;SDS011;30152;52.066;5.358;2023-03-20T13:23:11;38.22;;;18.55;;
44446;SDS011;30152;52.066;5.358;2023-03-20T13:25:54;36.42;;;18.13;;
44446;SDS011;30152;52.066;5.358;2023-03-20T13:28:39;39.08;;;17.27;;
44446;SDS011;30152;52.066;5.358;2023-03-20T13:31:19;35.83;;;18.00;;
44446;SDS011;30152;52.066;5.358;2023-03-20T13:39:28;39.58;;;18.80;;
44446;SDS011;30152;52.066;5.358;2023-03-20T13:41:59;46.17;;;19.65;;
44446;SDS011;30152;52.066;5.358;2023-03-20T13:44:28;38.05;;;19.30;;
44446;SDS011;30152;52.066;5.358;2023-03-20T13:46:59;38.97;;;19.50;;
44446;SDS011;30152;52.066;5.358;2023-03-20T13:49:56;46.95;;;19.88;;
44446;SDS011;30152;52.066;5.358;2023-03-20T13:52:46;31.35;;;17.02;;
44446;SDS011;30152;52.066;5.358;2023-03-20T14:00:55;34.00;;;18.98;;
44446;SDS011;30152;52.066;5.358;2023-03-20T14:03:36;44.70;;;18.30;;
44446;SDS011;30152;52.066;5.358;2023-03-20T14:08:55;43.80;;;20.88;;
44446;SDS011;30152;52.066;5.358;2023-03-20T14:13:58;44.70;;;19.95;;
44446;SDS011;30152;52.066;5.358;2023-03-20T14:16:48;39.28;;;19.10;;
44446;SDS011;30152;52.066;5.358;2023-03-20T14:21:39;41.95;;;20.38;;
44446;SDS011;30152;52.066;5.358;2023-03-20T14:24:10;40.70;;;20.33;;
44446;SDS011;30152;52.066;5.358;2023-03-20T14:26:39;37.17;;;18.35;;
44446;SDS011;30152;52.066;5.358;2023-03-20T14:31:36;54.88;;;23.48;;
44446;SDS011;30152;52.066;5.358;2023-03-20T14:43:05;43.25;;;20.88;;
44446;SDS011;30152;52.066;5.358;2023-03-20T14:48:06;41.30;;;20.38;;
44446;SDS011;30152;52.066;5.358;2023-03-20T14:53:19;34.72;;;19.50;;
44446;SDS011;30152;52.066;5.358;2023-03-20T14:55:49;40.38;;;20.48;;
44446;SDS011;30152;52.066;5.358;2023-03-20T15:01:08;43.78;;;19.90;;
44446;SDS011;30152;52.066;5.358;2023-03-20T15:04:27;39.30;;;20.30;;
44446;SDS011;30152;52.066;5.358;2023-03-20T15:07:13;38.72;;;21.75;;
44446;SDS011;30152;52.066;5.358;2023-03-20T15:09:42;44.28;;;19.67;;
44446;SDS011;30152;52.066;5.358;2023-03-20T15:12:11;46.67;;;22.00;;
44446;SDS011;30152;52.066;5.358;2023-03-20T15:14:43;35.72;;;20.00;;
44446;SDS011;30152;52.066;5.358;2023-03-20T15:17:16;42.72;;;20.63;;
44446;SDS011;30152;52.066;5.358;2023-03-20T15:19:43;37.13;;;20.17;;
44446;SDS011;30152;52.066;5.358;2023-03-20T15:22:13;43.83;;;23.23;;
44446;SDS011;30152;52.066;5.358;2023-03-20T15:24:41;42.92;;;20.55;;
44446;SDS011;30152;52.066;5.358;2023-03-20T15:27:10;36.90;;;20.75;;
44446;SDS011;30152;52.066;5.358;2023-03-20T15:29:36;39.78;;;20.50;;
44446;SDS011;30152;52.066;5.358;2023-03-20T15:32:02;41.78;;;21.27;;
44446;SDS011;30152;52.066;5.358;2023-03-20T15:34:31;37.22;;;20.52;;
44446;SDS011;30152;52.066;5.358;2023-03-20T15:36:58;36.30;;;21.38;;
44446;SDS011;30152;52.066;5.358;2023-03-20T15:39:27;38.63;;;20.67;;
44446;SDS011;30152;52.066;5.358;2023-03-20T15:41:55;37.88;;;20.55;;
44446;SDS011;30152;52.066;5.358;2023-03-20T15:49:40;36.63;;;19.38;;
44446;SDS011;30152;52.066;5.358;2023-03-20T15:52:10;40.05;;;20.00;;
44446;SDS011;30152;52.066;5.358;2023-03-20T15:54:56;36.90;;;19.33;;
44446;SDS011;30152;52.066;5.358;2023-03-20T15:57:31;40.60;;;20.33;;
44446;SDS011;30152;52.066;5.358;2023-03-20T15:59:59;40.70;;;21.13;;
44446;SDS011;30152;52.066;5.358;2023-03-20T16:02:25;41.10;;;20.05;;
44446;SDS011;30152;52.066;5.358;2023-03-20T16:04:53;42.85;;;21.70;;
44446;SDS011;30152;52.066;5.358;2023-03-20T16:07:29;40.92;;;19.48;;
44446;SDS011;30152;52.066;5.358;2023-03-20T16:09:57;45.55;;;21.10;;
44446;SDS011;30152;52.066;5.358;2023-03-20T16:12:23;41.88;;;21.13;;
44446;SDS011;30152;52.066;5.358;2023-03-20T16:14:50;47.45;;;21.42;;
44446;SDS011;30152;52.066;5.358;2023-03-20T16:17:17;46.42;;;21.85;;
44446;SDS011;30152;52.066;5.358;2023-03-20T16:19:45;49.28;;;23.38;;
44446;SDS011;30152;52.066;5.358;2023-03-20T16:24:43;37.20;;;20.65;;
44446;SDS011;30152;52.066;5.358;2023-03-20T16:27:12;49.88;;;21.95;;
44446;SDS011;30152;52.066;5.358;2023-03-20T16:29:44;40.60;;;21.10;;
44446;SDS011;30152;52.066;5.358;2023-03-20T16:32:32;48.88;;;22.02;;
44446;SDS011;30152;52.066;5.358;2023-03-20T16:35:06;38.13;;;20.73;;
44446;SDS011;30152;52.066;5.358;2023-03-20T16:37:58;43.17;;;21.52;;
44446;SDS011;30152;52.066;5.358;2023-03-20T16:42:52;40.83;;;20.38;;
44446;SDS011;30152;52.066;5.358;2023-03-20T16:47:46;43.85;;;21.90;;
44446;SDS011;30152;52.066;5.358;2023-03-20T16:52:40;47.88;;;22.70;;
44446;SDS011;30152;52.066;5.358;2023-03-20T16:55:13;43.85;;;22.67;;
44446;SDS011;30152;52.066;5.358;2023-03-20T16:57:41;48.78;;;23.08;;
44446;SDS011;30152;52.066;5.358;2023-03-20T17:00:19;49.38;;;22.27;;
44446;SDS011;30152;52.066;5.358;2023-03-20T17:03:12;39.75;;;20.23;;
44446;SDS011;30152;52.066;5.358;2023-03-20T17:08:37;37.17;;;20.17;;
44446;SDS011;30152;52.066;5.358;2023-03-20T17:11:12;39.97;;;21.13;;
44446;SDS011;30152;52.066;5.358;2023-03-20T17:13:45;42.53;;;20.38;;
44446;SDS011;30152;52.066;5.358;2023-03-20T17:16:13;54.78;;;23.20;;
44446;SDS011;30152;52.066;5.358;2023-03-20T17:18:43;50.88;;;21.50;;
44446;SDS011;30152;52.066;5.358;2023-03-20T17:21:10;51.90;;;21.83;;
44446;SDS011;30152;52.066;5.358;2023-03-20T17:23:36;38.35;;;21.27;;
44446;SDS011;30152;52.066;5.358;2023-03-20T17:26:02;43.53;;;21.75;;
44446;SDS011;30152;52.066;5.358;2023-03-20T17:28:30;40.40;;;22.48;;